createdAt,value
2019-02-26T00:01:14.431Z,20.600000
2019-02-26T00:03:46.743Z,20.600000
2019-02-26T00:06:18.451Z,19.000000
2019-02-26T00:08:51.338Z,19.000000
2019-02-26T00:11:26.361Z,15.800000
2019-02-26T00:13:58.902Z,15.800000
2019-02-26T00:16:29.344Z,18.200000
2019-02-26T00:19:02.616Z,18.200000
2019-02-26T00:21:33.575Z,18.500000
2019-02-26T00:24:05.027Z,18.500000
2019-02-26T00:26:38.430Z,15.600000
2019-02-26T00:29:09.383Z,15.600000
2019-02-26T00:31:39.748Z,16.700000
2019-02-26T00:34:10.760Z,16.700000
2019-02-26T00:36:43.469Z,17.600000
2019-02-26T00:39:13.841Z,17.600000
2019-02-26T00:41:44.243Z,16.100000
2019-02-26T00:44:14.604Z,16.100000
2019-02-26T00:46:44.971Z,15.700000
2019-02-26T00:49:15.406Z,15.700000
2019-02-26T00:51:47.882Z,18.000000
2019-02-26T00:54:22.169Z,18.000000
2019-02-26T00:56:57.029Z,19.100000
2019-02-26T00:59:29.484Z,19.100000
2019-02-26T01:01:59.767Z,15.800000
2019-02-26T01:04:30.054Z,15.800000
2019-02-26T01:07:01.186Z,19.800000
2019-02-26T01:09:33.998Z,19.800000
2019-02-26T01:12:06.156Z,17.700000
2019-02-26T01:14:36.854Z,14.100000
2019-02-26T01:17:09.452Z,14.100000
2019-02-26T01:19:40.735Z,18.300000
2019-02-26T01:22:12.950Z,18.300000
2019-02-26T01:24:43.364Z,18.500000
2019-02-26T01:27:13.717Z,18.500000
2019-02-26T01:29:44.525Z,17.500000
2019-02-26T01:32:18.094Z,17.500000
2019-02-26T01:34:50.704Z,14.700000
2019-02-26T01:37:21.079Z,14.700000
2019-02-26T01:39:52.195Z,13.400000
2019-02-26T01:42:25.330Z,13.400000
2019-02-26T01:44:57.408Z,19.000000
2019-02-26T01:47:28.503Z,19.000000
2019-02-26T01:49:59.430Z,18.800000
2019-02-26T01:52:29.927Z,18.800000
2019-02-26T01:55:02.685Z,16.100000
2019-02-26T01:57:33.128Z,16.100000
2019-02-26T02:00:06.441Z,17.400000
2019-02-26T02:02:37.316Z,17.400000
2019-02-26T02:05:07.699Z,17.400000
2019-02-26T02:07:38.132Z,17.400000
2019-02-26T02:10:08.380Z,18.200000
2019-02-26T02:12:39.592Z,18.200000
2019-02-26T02:15:12.369Z,17.500000
2019-02-26T02:17:44.934Z,17.500000
2019-02-26T02:20:18.075Z,14.100000
2019-02-26T02:22:49.632Z,14.100000
2019-02-26T02:25:19.996Z,13.800000
2019-02-26T02:27:52.502Z,13.800000
2019-02-26T02:30:30.395Z,15.900000
2019-02-26T02:33:02.167Z,15.900000
2019-02-26T02:35:32.530Z,14.300000
2019-02-26T02:38:04.757Z,14.300000
2019-02-26T02:40:38.014Z,17.400000
2019-02-26T02:43:12.406Z,17.400000
2019-02-26T02:45:47.489Z,14.500000
2019-02-26T02:48:18.363Z,14.500000
2019-02-26T02:50:48.738Z,15.900000
2019-02-26T02:53:21.239Z,15.900000
2019-02-26T02:55:54.249Z,18.000000
2019-02-26T02:58:26.044Z,18.000000
2019-02-26T03:00:57.983Z,16.200000
2019-02-26T03:03:30.779Z,16.200000
2019-02-26T03:06:07.617Z,14.900000
2019-02-26T03:08:42.115Z,14.900000
2019-02-26T03:11:13.402Z,13.600000
2019-02-26T03:13:50.758Z,13.600000
2019-02-26T03:16:24.170Z,14.900000
2019-02-26T03:18:57.199Z,12.900000
2019-02-26T03:21:28.651Z,12.900000
2019-02-26T03:24:02.889Z,20.700000
2019-02-26T03:26:33.874Z,20.700000
2019-02-26T03:29:04.222Z,15.500000
2019-02-26T03:31:39.708Z,15.500000
2019-02-26T03:34:21.771Z,16.400000
2019-02-26T03:36:57.370Z,16.400000
2019-02-26T03:39:30.092Z,16.200000
2019-02-26T03:42:00.355Z,16.200000
2019-02-26T03:44:30.735Z,15.200000
2019-02-26T03:47:01.136Z,15.200000
2019-02-26T03:49:31.733Z,14.800000
2019-02-26T03:52:02.092Z,14.800000
2019-02-26T03:54:32.439Z,16.300000
2019-02-26T03:57:02.703Z,16.300000
2019-02-26T03:59:33.038Z,14.500000
2019-02-26T04:02:03.403Z,14.500000
2019-02-26T04:04:33.810Z,14.700000
2019-02-26T04:07:07.159Z,14.700000
2019-02-26T04:09:44.082Z,14.900000
2019-02-26T04:12:15.415Z,14.900000
2019-02-26T04:14:48.091Z,14.100000
2019-02-26T04:17:23.182Z,14.100000
2019-02-26T04:19:55.828Z,14.000000
2019-02-26T04:22:26.529Z,14.000000
2019-02-26T04:25:01.005Z,15.200000
2019-02-26T04:27:36.303Z,15.200000
2019-02-26T04:30:10.972Z,15.400000
2019-02-26T04:32:43.536Z,15.400000
2019-02-26T04:35:16.299Z,21.300000
2019-02-26T04:37:46.746Z,21.300000
2019-02-26T04:40:17.031Z,17.500000
2019-02-26T04:42:47.445Z,17.500000
2019-02-26T04:45:17.797Z,18.400000
2019-02-26T04:47:49.506Z,18.400000
2019-02-26T04:50:26.058Z,18.100000
2019-02-26T04:53:01.845Z,18.100000
2019-02-26T04:55:36.062Z,16.400000
2019-02-26T04:58:08.759Z,16.400000
2019-02-26T05:00:41.047Z,13.800000
2019-02-26T05:03:14.142Z,13.800000
2019-02-26T05:05:45.521Z,16.800000
2019-02-26T05:08:17.783Z,16.800000
2019-02-26T05:10:49.821Z,17.900000
2019-02-26T05:13:24.599Z,20.100000
2019-02-26T05:15:56.913Z,20.100000
2019-02-26T05:18:28.651Z,19.900000
2019-02-26T05:21:08.296Z,19.900000
2019-02-26T05:23:46.462Z,18.300000
2019-02-26T05:26:20.800Z,18.300000
2019-02-26T05:28:51.601Z,16.800000
2019-02-26T05:31:22.012Z,16.800000
2019-02-26T05:33:54.677Z,21.600000
2019-02-26T05:36:28.356Z,21.600000
2019-02-26T05:39:00.370Z,17.200000
2019-02-26T05:41:32.511Z,17.200000
2019-02-26T05:44:06.632Z,18.400000
2019-02-26T05:46:37.780Z,18.400000
2019-02-26T05:49:12.536Z,19.400000
2019-02-26T05:51:43.744Z,19.400000
2019-02-26T05:54:15.317Z,17.700000
2019-02-26T05:56:49.836Z,17.700000
2019-02-26T05:59:21.690Z,19.300000
2019-02-26T06:01:55.320Z,19.300000
2019-02-26T06:04:26.196Z,16.500000
2019-02-26T06:06:58.855Z,16.500000
2019-02-26T06:09:30.543Z,15.000000
2019-02-26T06:12:03.890Z,15.000000
2019-02-26T06:14:36.285Z,19.700000
2019-02-26T06:17:10.520Z,19.700000
2019-02-26T06:19:44.876Z,21.000000
2019-02-26T06:22:18.135Z,21.000000
2019-02-26T06:24:54.969Z,20.100000
2019-02-26T06:27:27.653Z,20.100000
2019-02-26T06:30:00.128Z,20.800000
2019-02-26T06:32:32.859Z,20.800000
2019-02-26T06:35:06.685Z,28.100000
2019-02-26T06:37:40.322Z,28.100000
2019-02-26T06:40:10.731Z,19.200000
2019-02-26T06:42:41.253Z,19.200000
2019-02-26T06:45:13.955Z,23.700000
2019-02-26T06:47:48.557Z,23.700000
2019-02-26T06:50:21.557Z,22.800000
2019-02-26T06:52:51.905Z,17.500000
2019-02-26T06:55:22.225Z,17.500000
2019-02-26T06:57:55.005Z,26.400000
2019-02-26T07:00:27.006Z,26.400000
2019-02-26T07:03:00.138Z,19.100000
2019-02-26T07:05:32.635Z,19.100000
2019-02-26T07:08:04.790Z,17.900000
2019-02-26T07:10:36.806Z,17.900000
2019-02-26T07:13:09.286Z,53.500000
2019-02-26T07:15:40.477Z,53.500000
2019-02-26T07:18:16.347Z,45.600000
2019-02-26T07:20:49.876Z,45.600000
2019-02-26T07:23:22.874Z,52.400000
2019-02-26T07:25:53.245Z,52.400000
2019-02-26T07:28:24.629Z,68.000000
2019-02-26T07:30:57.205Z,68.000000
2019-02-26T07:33:29.687Z,63.000000
2019-02-26T07:36:02.341Z,63.000000
2019-02-26T07:38:40.951Z,32.800000
2019-02-26T07:41:11.999Z,32.800000
2019-02-26T07:43:44.612Z,34.800000
2019-02-26T07:46:19.209Z,34.800000
2019-02-26T07:48:53.642Z,29.700000
2019-02-26T07:51:24.962Z,29.700000
2019-02-26T07:53:56.464Z,27.500000
2019-02-26T07:56:32.062Z,27.500000
2019-02-26T07:59:04.961Z,27.900000
2019-02-26T08:01:39.536Z,27.900000
2019-02-26T08:04:11.589Z,24.500000
2019-02-26T08:06:43.736Z,24.500000
2019-02-26T08:09:14.718Z,22.000000
2019-02-26T08:11:48.990Z,22.000000
2019-02-26T08:14:20.985Z,27.600000
2019-02-26T08:16:55.668Z,27.600000
2019-02-26T08:19:29.744Z,25.200000
2019-02-26T08:22:00.315Z,25.200000
2019-02-26T08:24:30.701Z,26.200000
2019-02-26T08:27:03.255Z,26.200000
2019-02-26T08:29:35.971Z,24.600000
2019-02-26T08:32:06.490Z,24.600000
2019-02-26T08:34:39.194Z,28.700000
2019-02-26T08:37:10.231Z,28.700000
2019-02-26T08:39:41.290Z,22.600000
2019-02-26T08:42:11.602Z,22.600000
2019-02-26T08:44:41.972Z,26.900000
2019-02-26T08:47:14.011Z,26.900000
2019-02-26T08:49:47.471Z,24.600000
2019-02-26T08:52:21.495Z,22.100000
2019-02-26T08:54:52.465Z,22.100000
2019-02-26T08:57:22.759Z,23.400000
2019-02-26T08:59:54.635Z,23.400000
2019-02-26T09:02:25.015Z,21.000000
2019-02-26T09:04:55.380Z,21.000000
2019-02-26T09:07:26.326Z,21.200000
2019-02-26T09:09:57.569Z,21.200000
2019-02-26T09:12:28.167Z,21.200000
2019-02-26T09:14:58.589Z,21.200000
2019-02-26T09:17:30.464Z,19.100000
2019-02-26T09:20:09.391Z,19.100000
2019-02-26T09:22:45.701Z,18.100000
2019-02-26T09:25:20.404Z,18.100000
2019-02-26T09:27:53.034Z,17.900000
2019-02-26T09:30:23.361Z,17.900000
2019-02-26T09:32:53.655Z,19.200000
2019-02-26T09:35:28.173Z,19.200000
2019-02-26T09:38:00.968Z,16.500000
2019-02-26T09:40:34.231Z,16.500000
2019-02-26T09:43:06.128Z,13.500000
2019-02-26T09:45:36.656Z,13.500000
2019-02-26T09:48:07.008Z,13.900000
2019-02-26T09:50:38.648Z,13.900000
2019-02-26T09:53:10.628Z,18.100000
2019-02-26T09:55:40.943Z,18.100000
2019-02-26T09:58:13.348Z,15.900000
2019-02-26T10:00:46.076Z,15.900000
2019-02-26T10:03:18.262Z,16.200000
2019-02-26T10:05:50.256Z,16.200000
2019-02-26T10:08:24.949Z,12.200000
2019-02-26T10:10:59.674Z,12.200000
2019-02-26T10:13:32.073Z,16.200000
2019-02-26T10:16:04.495Z,16.200000
2019-02-26T10:18:36.917Z,11.200000
2019-02-26T10:21:09.146Z,11.200000
2019-02-26T10:23:41.516Z,11.000000
2019-02-26T10:26:11.752Z,11.000000
2019-02-26T10:28:42.760Z,10.100000
2019-02-26T10:31:15.863Z,10.100000
2019-02-26T10:33:48.264Z,11.900000
2019-02-26T10:36:19.361Z,11.900000
2019-02-26T10:38:50.871Z,10.100000
2019-02-26T10:41:22.977Z,10.100000
2019-02-26T10:43:53.414Z,14.300000
2019-02-26T10:46:23.790Z,14.300000
2019-02-26T10:48:54.129Z,16.100000
2019-02-26T10:51:27.017Z,16.100000
2019-02-26T10:53:59.826Z,9.700000
2019-02-26T10:56:35.225Z,9.700000
2019-02-26T10:59:12.513Z,9.600000
2019-02-26T11:01:43.514Z,9.600000
2019-02-26T11:04:13.899Z,13.600000
2019-02-26T11:06:45.236Z,13.600000
2019-02-26T11:09:21.213Z,10.900000
2019-02-26T11:11:52.448Z,15.100000
2019-02-26T11:14:22.752Z,15.100000
2019-02-26T11:16:53.062Z,7.700000
2019-02-26T11:19:25.237Z,7.700000
2019-02-26T11:21:58.696Z,8.500000
2019-02-26T11:24:33.510Z,8.500000
2019-02-26T11:27:04.389Z,12.900000
2019-02-26T11:29:36.000Z,12.900000
2019-02-26T11:32:10.414Z,14.400000
2019-02-26T11:34:42.939Z,14.400000
2019-02-26T11:37:13.344Z,7.300000
2019-02-26T11:39:43.784Z,7.300000
2019-02-26T11:42:16.471Z,7.000000
2019-02-26T11:44:48.853Z,7.000000
2019-02-26T11:47:20.626Z,11.700000
2019-02-26T11:49:51.013Z,11.700000
2019-02-26T11:52:21.428Z,7.000000
2019-02-26T11:54:51.793Z,7.000000
2019-02-26T11:57:22.081Z,11.300000
2019-02-26T11:59:52.504Z,11.300000
2019-02-26T12:02:28.023Z,9.800000
2019-02-26T12:05:02.892Z,9.800000
2019-02-26T12:07:35.342Z,14.800000
2019-02-26T12:10:09.530Z,14.800000
2019-02-26T12:12:42.498Z,21.100000
2019-02-26T12:15:15.010Z,21.100000
2019-02-26T12:17:46.105Z,17.600000
2019-02-26T12:20:19.563Z,17.600000
2019-02-26T12:22:52.458Z,21.400000
2019-02-26T12:25:25.204Z,21.400000
2019-02-26T12:27:55.663Z,10.600000
2019-02-26T12:30:26.013Z,10.600000
2019-02-26T12:32:56.377Z,32.600000
2019-02-26T12:35:26.592Z,32.600000
2019-02-26T12:38:01.389Z,14.200000
2019-02-26T12:40:47.064Z,14.200000
2019-02-26T12:43:19.314Z,20.700000
2019-02-26T12:45:51.420Z,20.700000
2019-02-26T12:48:22.865Z,28.700000
2019-02-26T12:50:55.581Z,28.700000
2019-02-26T12:53:28.631Z,15.200000
2019-02-26T12:56:01.940Z,15.200000
2019-02-26T12:58:32.749Z,23.100000
2019-02-26T13:01:03.048Z,23.100000
2019-02-26T13:03:35.988Z,28.500000
2019-02-26T13:06:12.025Z,28.500000
2019-02-26T13:08:47.224Z,19.200000
2019-02-26T13:11:21.072Z,19.200000
2019-02-26T13:13:54.704Z,18.400000
2019-02-26T13:16:25.019Z,18.400000
2019-02-26T13:18:58.508Z,27.900000
2019-02-26T13:21:31.018Z,11.800000
2019-02-26T13:24:11.428Z,11.800000
2019-02-26T13:26:48.839Z,15.200000
2019-02-26T13:29:21.105Z,15.200000
2019-02-26T13:31:56.495Z,16.600000
2019-02-26T13:34:29.924Z,16.600000
2019-02-26T13:37:00.279Z,19.400000
2019-02-26T13:39:38.221Z,19.400000
2019-02-26T13:42:13.981Z,13.600000
2019-02-26T13:44:49.419Z,13.600000
2019-02-26T13:47:19.762Z,13.600000
2019-02-26T13:49:51.979Z,13.600000
2019-02-26T13:52:22.455Z,11.600000
2019-02-26T13:54:53.017Z,11.600000
2019-02-26T13:57:23.410Z,19.500000
2019-02-26T13:59:53.920Z,19.500000
2019-02-26T14:02:24.305Z,15.800000
2019-02-26T14:04:54.594Z,15.800000
2019-02-26T14:07:25.023Z,17.300000
2019-02-26T14:09:55.244Z,17.300000
2019-02-26T14:12:25.663Z,20.600000
2019-02-26T14:14:55.978Z,20.600000
2019-02-26T14:17:26.313Z,11.200000
2019-02-26T14:19:56.726Z,11.200000
2019-02-26T14:22:27.061Z,18.000000
2019-02-26T14:24:57.375Z,18.000000
2019-02-26T14:27:27.594Z,25.800000
2019-02-26T14:29:58.124Z,25.800000
2019-02-26T14:32:28.738Z,26.800000
2019-02-26T14:34:59.076Z,26.800000
2019-02-26T14:37:29.312Z,10.400000
2019-02-26T14:39:59.841Z,10.400000
2019-02-26T14:42:30.251Z,15.500000
2019-02-26T14:45:00.670Z,15.500000
2019-02-26T14:47:31.073Z,15.900000
2019-02-26T14:50:01.497Z,15.900000
2019-02-26T14:52:31.823Z,16.600000
2019-02-26T14:55:02.137Z,16.600000
2019-02-26T14:57:32.753Z,8.900000
2019-02-26T15:00:03.180Z,8.900000
2019-02-26T15:02:33.488Z,17.700000
2019-02-26T15:05:09.143Z,17.700000
2019-02-26T15:07:39.510Z,19.900000
2019-02-26T15:10:09.832Z,19.900000
2019-02-26T15:12:40.117Z,12.900000
2019-02-26T15:15:10.566Z,12.900000
2019-02-26T15:17:40.866Z,16.600000
2019-02-26T15:20:11.271Z,16.600000
2019-02-26T15:22:41.575Z,14.900000
2019-02-26T15:25:11.950Z,14.900000
2019-02-26T15:27:42.342Z,22.900000
2019-02-26T15:30:12.628Z,22.900000
2019-02-26T15:32:42.932Z,17.000000
2019-02-26T15:35:13.218Z,17.000000
2019-02-26T15:37:43.812Z,13.500000
2019-02-26T15:40:14.307Z,13.500000
2019-02-26T15:42:44.681Z,23.700000
2019-02-26T15:45:15.176Z,23.700000
2019-02-26T15:47:45.417Z,11.100000
2019-02-26T15:50:15.720Z,11.100000
2019-02-26T15:52:46.129Z,9.700000
2019-02-26T15:55:16.647Z,9.700000
2019-02-26T15:57:47.026Z,12.500000
2019-02-26T16:00:17.366Z,12.500000
2019-02-26T16:02:47.657Z,19.600000
2019-02-26T16:05:17.922Z,19.600000
2019-02-26T16:07:48.518Z,11.300000
2019-02-26T16:10:19.493Z,11.300000
2019-02-26T16:12:52.460Z,17.100000
2019-02-26T16:15:22.787Z,17.100000
2019-02-26T16:17:53.129Z,16.900000
2019-02-26T16:20:23.474Z,16.900000
2019-02-26T16:22:53.812Z,20.100000
2019-02-26T16:25:24.154Z,20.100000
2019-02-26T16:27:54.486Z,24.000000
2019-02-26T16:30:24.906Z,24.000000
2019-02-26T16:32:55.603Z,25.900000
2019-02-26T16:35:25.935Z,25.900000
2019-02-26T16:37:56.310Z,21.600000
2019-02-26T16:40:31.253Z,21.600000
2019-02-26T16:43:02.496Z,22.700000
2019-02-26T16:45:35.164Z,22.700000
2019-02-26T16:48:05.624Z,21.000000
2019-02-26T16:50:36.004Z,21.000000
2019-02-26T16:53:06.396Z,24.800000
2019-02-26T16:55:36.801Z,24.800000
2019-02-26T16:58:07.187Z,31.300000
2019-02-26T17:00:37.631Z,31.300000
2019-02-26T17:03:08.058Z,21.600000
2019-02-26T17:05:38.345Z,21.600000
2019-02-26T17:08:08.792Z,16.200000
2019-02-26T17:10:39.099Z,16.200000
2019-02-26T17:13:09.596Z,20.100000
2019-02-26T17:15:40.950Z,20.100000
2019-02-26T17:18:11.461Z,23.100000
2019-02-26T17:20:47.001Z,23.100000
2019-02-26T17:23:22.375Z,24.400000
2019-02-26T17:25:52.685Z,21.700000
2019-02-26T17:28:23.171Z,21.700000
2019-02-26T17:30:57.429Z,21.400000
2019-02-26T17:33:28.230Z,21.400000
2019-02-26T17:35:59.572Z,19.900000
2019-02-26T17:38:32.161Z,19.900000
2019-02-26T17:41:02.526Z,18.500000
2019-02-26T17:43:32.986Z,18.500000
2019-02-26T17:46:03.347Z,25.400000
2019-02-26T17:48:43.254Z,25.400000
2019-02-26T17:51:14.136Z,17.700000
2019-02-26T17:53:44.492Z,17.700000
2019-02-26T17:56:15.030Z,19.500000
2019-02-26T17:58:45.397Z,19.500000
2019-02-26T18:01:15.714Z,18.000000
2019-02-26T18:03:51.099Z,18.000000
2019-02-26T18:06:26.445Z,23.200000
2019-02-26T18:08:56.994Z,23.200000
2019-02-26T18:11:27.326Z,21.400000
2019-02-26T18:14:00.042Z,21.400000
2019-02-26T18:16:34.508Z,21.100000
2019-02-26T18:19:05.057Z,21.100000
2019-02-26T18:21:36.417Z,18.900000
2019-02-26T18:24:06.784Z,18.900000
2019-02-26T18:26:37.021Z,20.400000
2019-02-26T18:29:07.470Z,20.400000
2019-02-26T18:31:37.791Z,27.100000
2019-02-26T18:34:08.315Z,27.100000
2019-02-26T18:36:38.748Z,50.500000
2019-02-26T18:39:10.463Z,50.500000
2019-02-26T18:41:40.906Z,43.300000
2019-02-26T18:44:11.226Z,43.300000
2019-02-26T18:46:41.683Z,31.400000
2019-02-26T18:49:12.212Z,31.400000
2019-02-26T18:51:49.690Z,32.500000
2019-02-26T18:54:20.329Z,32.500000
2019-02-26T18:56:51.484Z,30.600000
2019-02-26T18:59:22.184Z,30.600000
2019-02-26T19:01:52.941Z,32.000000
2019-02-26T19:04:23.365Z,32.000000
2019-02-26T19:06:53.733Z,25.500000
2019-02-26T19:09:24.398Z,25.500000
2019-02-26T19:11:55.528Z,33.700000
2019-02-26T19:14:27.955Z,33.700000
2019-02-26T19:16:58.258Z,30.300000
2019-02-26T19:19:28.569Z,30.300000
2019-02-26T19:21:59.033Z,31.700000
2019-02-26T19:24:29.499Z,31.700000
2019-02-26T19:26:59.941Z,24.700000
2019-02-26T19:29:31.655Z,24.700000
2019-02-26T19:32:02.399Z,30.900000
2019-02-26T19:34:32.724Z,30.900000
2019-02-26T19:37:03.003Z,30.200000
2019-02-26T19:39:33.813Z,30.200000
2019-02-26T19:42:04.535Z,25.800000
2019-02-26T19:44:35.988Z,25.800000
2019-02-26T19:47:06.725Z,20.800000
2019-02-26T19:49:39.613Z,20.800000
2019-02-26T19:52:10.611Z,25.500000
2019-02-26T19:54:41.981Z,25.500000
2019-02-26T19:57:12.901Z,24.400000
2019-02-26T19:59:46.781Z,24.400000
2019-02-26T20:02:17.911Z,23.600000
2019-02-26T20:04:48.214Z,23.600000
2019-02-26T20:07:18.595Z,18.300000
2019-02-26T20:09:48.960Z,18.300000
2019-02-26T20:12:19.262Z,19.500000
2019-02-26T20:14:49.689Z,19.500000
2019-02-26T20:17:20.445Z,24.000000
2019-02-26T20:19:50.784Z,24.000000
2019-02-26T20:22:21.296Z,24.900000
2019-02-26T20:24:51.688Z,24.900000
2019-02-26T20:27:22.368Z,22.000000
2019-02-26T20:29:52.853Z,22.000000
2019-02-26T20:32:23.360Z,22.400000
2019-02-26T20:34:53.683Z,22.400000
2019-02-26T20:37:24.321Z,19.800000
2019-02-26T20:39:55.368Z,19.800000
2019-02-26T20:42:26.807Z,33.100000
2019-02-26T20:44:59.280Z,33.100000
2019-02-26T20:47:31.635Z,25.900000
2019-02-26T20:50:02.666Z,30.300000
2019-02-26T20:52:33.419Z,30.300000
2019-02-26T20:55:03.846Z,23.400000
2019-02-26T20:57:37.410Z,23.400000
2019-02-26T21:00:07.970Z,32.400000
2019-02-26T21:02:38.222Z,32.400000
2019-02-26T21:05:08.582Z,24.800000
2019-02-26T21:07:38.930Z,24.800000
2019-02-26T21:10:09.369Z,32.000000
2019-02-26T21:12:39.811Z,32.000000
2019-02-26T21:15:13.593Z,31.000000
2019-02-26T21:17:44.617Z,31.000000
2019-02-26T21:20:14.848Z,24.700000
2019-02-26T21:22:54.614Z,24.700000
2019-02-26T21:25:26.200Z,28.800000
2019-02-26T21:28:00.721Z,28.800000
2019-02-26T21:30:31.799Z,24.600000
2019-02-26T21:33:02.166Z,24.600000
2019-02-26T21:35:32.510Z,34.300000
2019-02-26T21:38:05.747Z,34.300000
2019-02-26T21:40:37.387Z,28.800000
2019-02-26T21:43:07.762Z,28.800000
2019-02-26T21:45:38.131Z,32.700000
2019-02-26T21:48:08.473Z,32.700000
2019-02-26T21:50:38.817Z,31.800000
2019-02-26T21:53:09.179Z,31.800000
2019-02-26T21:55:44.275Z,30.900000
2019-02-26T21:58:15.110Z,30.900000
2019-02-26T22:00:45.698Z,37.000000
2019-02-26T22:03:16.072Z,37.000000
2019-02-26T22:05:46.387Z,30.200000
2019-02-26T22:08:16.771Z,30.200000
2019-02-26T22:10:47.223Z,30.300000
2019-02-26T22:13:17.764Z,30.300000
2019-02-26T22:15:53.296Z,30.700000
2019-02-26T22:18:23.555Z,30.700000
2019-02-26T22:20:54.067Z,27.900000
2019-02-26T22:23:24.452Z,27.900000
2019-02-26T22:25:55.419Z,30.800000
2019-02-26T22:28:26.012Z,30.800000
2019-02-26T22:30:56.606Z,31.900000
2019-02-26T22:33:26.977Z,31.900000
2019-02-26T22:35:59.419Z,26.900000
2019-02-26T22:38:30.499Z,26.900000
2019-02-26T22:41:02.327Z,34.600000
2019-02-26T22:43:33.278Z,34.600000
2019-02-26T22:46:03.603Z,24.500000
2019-02-26T22:48:33.947Z,24.500000
2019-02-26T22:51:04.381Z,27.100000
2019-02-26T22:53:36.676Z,27.100000
2019-02-26T22:56:07.548Z,32.700000
2019-02-26T22:58:42.985Z,32.700000
2019-02-26T23:01:13.504Z,29.000000
2019-02-26T23:03:46.059Z,29.000000
2019-02-26T23:06:16.853Z,29.800000
2019-02-26T23:08:47.142Z,29.800000
2019-02-26T23:11:17.559Z,31.700000
2019-02-26T23:13:48.000Z,31.700000
2019-02-26T23:16:19.129Z,26.800000
2019-02-26T23:18:49.544Z,26.800000
2019-02-26T23:21:24.847Z,30.700000
2019-02-26T23:24:00.123Z,30.700000
2019-02-26T23:26:30.477Z,25.400000
2019-02-26T23:29:00.789Z,25.400000
2019-02-26T23:31:32.885Z,28.100000
2019-02-26T23:34:03.747Z,28.100000
2019-02-26T23:36:35.221Z,30.300000
2019-02-26T23:39:05.834Z,30.300000
2019-02-26T23:41:36.340Z,29.800000
2019-02-26T23:44:06.657Z,29.800000
2019-02-26T23:46:36.965Z,27.900000
2019-02-26T23:49:07.339Z,27.900000
2019-02-26T23:51:37.718Z,28.800000
2019-02-26T23:54:08.062Z,28.800000
2019-02-26T23:56:38.389Z,24.200000
2019-02-26T23:59:08.908Z,24.200000
